Benson, Arizona
Current Conditions -  °F | °C
As of 8:56 PM on Friday 19 Dec 2014 (Local Time) from KALK Reporting Station
Clear Clear  
Wind Chill: 40°   Ceiling: Unl
Heat Index: 40°   Visibility: 10mi
Dew Point: 28°   Wind: 0mph
Humidity: 63%   Direction: NA
Pressure: 30.19"   Gusts: NA
Location:  31.97°N, 110.29°W
Report Text: KALK 200356Z AUTO 00000KT 10SM CLR 04/M02 A3019 RMK AO2 SLP190 T00441022 TSNO
Loading
Personal Weather Stations






























Interactive Weather Map New forecast layout! Learn more

10-Day Weather Forecast

Advertisements
Track Severe Weather on mobile